sensor_id;sensor_type;location;lat;lon;timestamp;P1;durP1;ratioP1;P2;durP2;ratioP2
68910;SDS011;55953;51.650;-0.522;2022-10-16T00:01:44;18.30;;;2.80;;
68910;SDS011;55953;51.650;-0.522;2022-10-16T00:04:12;10.30;;;1.60;;
68910;SDS011;55953;51.650;-0.522;2022-10-16T00:06:41;16.00;;;2.00;;
68910;SDS011;55953;51.650;-0.522;2022-10-16T00:09:09;12.50;;;2.10;;
68910;SDS011;55953;51.650;-0.522;2022-10-16T00:11:39;13.40;;;1.70;;
68910;SDS011;55953;51.650;-0.522;2022-10-16T00:14:13;15.00;;;2.40;;
68910;SDS011;55953;51.650;-0.522;2022-10-16T00:16:42;15.10;;;2.20;;
68910;SDS011;55953;51.650;-0.522;2022-10-16T00:19:11;20.90;;;2.30;;
68910;SDS011;55953;51.650;-0.522;2022-10-16T00:21:40;13.30;;;2.20;;
68910;SDS011;55953;51.650;-0.522;2022-10-16T00:24:09;16.50;;;2.20;;
68910;SDS011;55953;51.650;-0.522;2022-10-16T00:26:38;14.80;;;1.90;;
68910;SDS011;55953;51.650;-0.522;2022-10-16T00:29:07;19.30;;;2.10;;
68910;SDS011;55953;51.650;-0.522;2022-10-16T00:31:36;13.60;;;2.10;;
68910;SDS011;55953;51.650;-0.522;2022-10-16T00:34:04;16.30;;;2.80;;
68910;SDS011;55953;51.650;-0.522;2022-10-16T00:36:32;14.50;;;1.80;;
68910;SDS011;55953;51.650;-0.522;2022-10-16T00:39:00;15.60;;;2.10;;
68910;SDS011;55953;51.650;-0.522;2022-10-16T00:41:30;13.20;;;1.50;;
68910;SDS011;55953;51.650;-0.522;2022-10-16T00:44:01;14.00;;;2.00;;
68910;SDS011;55953;51.650;-0.522;2022-10-16T00:46:38;13.80;;;2.00;;
68910;SDS011;55953;51.650;-0.522;2022-10-16T00:49:14;18.70;;;2.10;;
68910;SDS011;55953;51.650;-0.522;2022-10-16T00:51:47;10.30;;;1.60;;
68910;SDS011;55953;51.650;-0.522;2022-10-16T00:54:21;11.40;;;1.90;;
68910;SDS011;55953;51.650;-0.522;2022-10-16T00:56:53;12.40;;;2.00;;
68910;SDS011;55953;51.650;-0.522;2022-10-16T00:59:27;13.40;;;2.50;;
68910;SDS011;55953;51.650;-0.522;2022-10-16T01:01:58;13.80;;;2.40;;
68910;SDS011;55953;51.650;-0.522;2022-10-16T01:04:32;19.00;;;2.60;;
68910;SDS011;55953;51.650;-0.522;2022-10-16T01:10:31;10.90;;;1.90;;
68910;SDS011;55953;51.650;-0.522;2022-10-16T01:13:25;13.50;;;1.40;;
68910;SDS011;55953;51.650;-0.522;2022-10-16T01:16:06;13.80;;;1.90;;
68910;SDS011;55953;51.650;-0.522;2022-10-16T01:21:54;14.50;;;2.20;;
68910;SDS011;55953;51.650;-0.522;2022-10-16T01:27:11;11.00;;;1.60;;
68910;SDS011;55953;51.650;-0.522;2022-10-16T01:29:48;20.80;;;3.10;;
68910;SDS011;55953;51.650;-0.522;2022-10-16T01:32:38;14.00;;;2.20;;
68910;SDS011;55953;51.650;-0.522;2022-10-16T01:40:36;11.10;;;1.80;;
68910;SDS011;55953;51.650;-0.522;2022-10-16T01:43:22;17.50;;;2.00;;
68910;SDS011;55953;51.650;-0.522;2022-10-16T01:45:55;10.50;;;1.20;;
68910;SDS011;55953;51.650;-0.522;2022-10-16T01:48:24;11.50;;;1.50;;
68910;SDS011;55953;51.650;-0.522;2022-10-16T01:50:58;6.30;;;1.20;;
68910;SDS011;55953;51.650;-0.522;2022-10-16T01:53:31;12.90;;;2.00;;
68910;SDS011;55953;51.650;-0.522;2022-10-16T01:56:02;11.50;;;1.80;;
68910;SDS011;55953;51.650;-0.522;2022-10-16T01:58:39;10.70;;;1.20;;
68910;SDS011;55953;51.650;-0.522;2022-10-16T02:01:14;12.10;;;1.70;;
68910;SDS011;55953;51.650;-0.522;2022-10-16T02:03:46;10.30;;;1.40;;
68910;SDS011;55953;51.650;-0.522;2022-10-16T02:06:20;12.40;;;1.60;;
68910;SDS011;55953;51.650;-0.522;2022-10-16T02:08:48;11.70;;;1.50;;
68910;SDS011;55953;51.650;-0.522;2022-10-16T02:11:16;7.60;;;1.10;;
68910;SDS011;55953;51.650;-0.522;2022-10-16T02:13:47;8.40;;;1.30;;
68910;SDS011;55953;51.650;-0.522;2022-10-16T02:16:18;13.10;;;1.30;;
68910;SDS011;55953;51.650;-0.522;2022-10-16T02:18:46;7.60;;;1.10;;
68910;SDS011;55953;51.650;-0.522;2022-10-16T02:21:45;7.50;;;0.90;;
68910;SDS011;55953;51.650;-0.522;2022-10-16T02:24:27;12.20;;;1.30;;
68910;SDS011;55953;51.650;-0.522;2022-10-16T02:27:19;9.20;;;1.10;;
68910;SDS011;55953;51.650;-0.522;2022-10-16T02:30:33;8.20;;;1.20;;
68910;SDS011;55953;51.650;-0.522;2022-10-16T02:35:50;10.90;;;1.10;;
68910;SDS011;55953;51.650;-0.522;2022-10-16T02:38:20;9.30;;;1.40;;
68910;SDS011;55953;51.650;-0.522;2022-10-16T02:40:49;8.10;;;1.00;;
68910;SDS011;55953;51.650;-0.522;2022-10-16T02:43:17;7.90;;;1.80;;
68910;SDS011;55953;51.650;-0.522;2022-10-16T02:45:46;7.30;;;1.40;;
68910;SDS011;55953;51.650;-0.522;2022-10-16T02:48:14;7.90;;;1.20;;
68910;SDS011;55953;51.650;-0.522;2022-10-16T02:50:42;6.30;;;1.10;;
68910;SDS011;55953;51.650;-0.522;2022-10-16T02:53:10;11.70;;;1.30;;
68910;SDS011;55953;51.650;-0.522;2022-10-16T02:55:38;10.60;;;1.20;;
68910;SDS011;55953;51.650;-0.522;2022-10-16T02:58:06;14.20;;;1.70;;
68910;SDS011;55953;51.650;-0.522;2022-10-16T03:00:34;14.20;;;2.80;;
68910;SDS011;55953;51.650;-0.522;2022-10-16T03:03:02;11.70;;;1.60;;
68910;SDS011;55953;51.650;-0.522;2022-10-16T03:05:30;14.00;;;1.80;;
68910;SDS011;55953;51.650;-0.522;2022-10-16T03:07:59;7.60;;;1.60;;
68910;SDS011;55953;51.650;-0.522;2022-10-16T03:10:28;5.80;;;1.20;;
68910;SDS011;55953;51.650;-0.522;2022-10-16T03:12:56;10.90;;;1.60;;
68910;SDS011;55953;51.650;-0.522;2022-10-16T03:15:24;9.20;;;1.30;;
68910;SDS011;55953;51.650;-0.522;2022-10-16T03:17:53;9.00;;;1.30;;
68910;SDS011;55953;51.650;-0.522;2022-10-16T03:20:21;7.40;;;1.30;;
68910;SDS011;55953;51.650;-0.522;2022-10-16T03:22:49;11.30;;;1.60;;
68910;SDS011;55953;51.650;-0.522;2022-10-16T03:25:17;10.50;;;1.30;;
68910;SDS011;55953;51.650;-0.522;2022-10-16T03:27:45;8.50;;;1.60;;
68910;SDS011;55953;51.650;-0.522;2022-10-16T03:30:13;9.90;;;1.30;;
68910;SDS011;55953;51.650;-0.522;2022-10-16T03:32:40;13.30;;;1.30;;
68910;SDS011;55953;51.650;-0.522;2022-10-16T03:35:08;9.00;;;1.10;;
68910;SDS011;55953;51.650;-0.522;2022-10-16T03:37:36;10.30;;;1.30;;
68910;SDS011;55953;51.650;-0.522;2022-10-16T03:40:05;11.10;;;1.30;;
68910;SDS011;55953;51.650;-0.522;2022-10-16T03:42:34;8.00;;;1.40;;
68910;SDS011;55953;51.650;-0.522;2022-10-16T03:45:02;8.60;;;1.50;;
68910;SDS011;55953;51.650;-0.522;2022-10-16T03:47:30;11.40;;;1.20;;
68910;SDS011;55953;51.650;-0.522;2022-10-16T03:50:00;8.60;;;1.90;;
68910;SDS011;55953;51.650;-0.522;2022-10-16T03:52:28;9.80;;;1.80;;
68910;SDS011;55953;51.650;-0.522;2022-10-16T03:54:56;6.10;;;1.20;;
68910;SDS011;55953;51.650;-0.522;2022-10-16T03:57:25;9.90;;;1.20;;
68910;SDS011;55953;51.650;-0.522;2022-10-16T03:59:53;9.70;;;1.30;;
68910;SDS011;55953;51.650;-0.522;2022-10-16T04:02:21;9.90;;;1.00;;
68910;SDS011;55953;51.650;-0.522;2022-10-16T04:04:49;13.30;;;2.10;;
68910;SDS011;55953;51.650;-0.522;2022-10-16T04:07:17;14.70;;;1.70;;
68910;SDS011;55953;51.650;-0.522;2022-10-16T04:09:45;12.00;;;1.40;;
68910;SDS011;55953;51.650;-0.522;2022-10-16T04:12:13;12.30;;;1.80;;
68910;SDS011;55953;51.650;-0.522;2022-10-16T04:14:41;14.60;;;1.60;;
68910;SDS011;55953;51.650;-0.522;2022-10-16T04:17:08;11.20;;;2.00;;
68910;SDS011;55953;51.650;-0.522;2022-10-16T04:19:36;9.40;;;1.60;;
68910;SDS011;55953;51.650;-0.522;2022-10-16T04:22:05;11.20;;;1.10;;
68910;SDS011;55953;51.650;-0.522;2022-10-16T04:24:33;10.80;;;1.40;;
68910;SDS011;55953;51.650;-0.522;2022-10-16T04:27:01;14.00;;;2.20;;
68910;SDS011;55953;51.650;-0.522;2022-10-16T04:29:29;9.50;;;2.00;;
68910;SDS011;55953;51.650;-0.522;2022-10-16T04:31:57;15.00;;;1.70;;
68910;SDS011;55953;51.650;-0.522;2022-10-16T04:34:25;12.60;;;1.40;;
68910;SDS011;55953;51.650;-0.522;2022-10-16T04:36:53;15.80;;;1.50;;
68910;SDS011;55953;51.650;-0.522;2022-10-16T04:39:21;16.40;;;1.60;;
68910;SDS011;55953;51.650;-0.522;2022-10-16T04:41:49;11.00;;;1.20;;
68910;SDS011;55953;51.650;-0.522;2022-10-16T04:44:17;8.70;;;1.40;;
68910;SDS011;55953;51.650;-0.522;2022-10-16T04:46:45;11.30;;;1.30;;
68910;SDS011;55953;51.650;-0.522;2022-10-16T04:49:13;11.00;;;1.60;;
68910;SDS011;55953;51.650;-0.522;2022-10-16T04:51:41;14.70;;;2.10;;
68910;SDS011;55953;51.650;-0.522;2022-10-16T04:54:09;11.30;;;1.60;;
68910;SDS011;55953;51.650;-0.522;2022-10-16T04:56:38;8.80;;;1.90;;
68910;SDS011;55953;51.650;-0.522;2022-10-16T04:59:14;16.50;;;1.70;;
68910;SDS011;55953;51.650;-0.522;2022-10-16T05:01:43;11.50;;;1.70;;
68910;SDS011;55953;51.650;-0.522;2022-10-16T05:04:11;13.80;;;2.50;;
68910;SDS011;55953;51.650;-0.522;2022-10-16T05:06:40;12.50;;;1.40;;
68910;SDS011;55953;51.650;-0.522;2022-10-16T05:09:09;13.30;;;1.90;;
68910;SDS011;55953;51.650;-0.522;2022-10-16T05:11:37;12.00;;;1.70;;
68910;SDS011;55953;51.650;-0.522;2022-10-16T05:14:05;14.10;;;2.30;;
68910;SDS011;55953;51.650;-0.522;2022-10-16T05:16:33;17.10;;;2.50;;
68910;SDS011;55953;51.650;-0.522;2022-10-16T05:19:01;12.60;;;1.50;;
68910;SDS011;55953;51.650;-0.522;2022-10-16T05:21:49;13.00;;;2.20;;
68910;SDS011;55953;51.650;-0.522;2022-10-16T05:24:17;8.00;;;1.10;;
68910;SDS011;55953;51.650;-0.522;2022-10-16T05:26:45;9.30;;;1.40;;
68910;SDS011;55953;51.650;-0.522;2022-10-16T05:29:12;12.70;;;1.40;;
68910;SDS011;55953;51.650;-0.522;2022-10-16T05:31:40;21.20;;;1.80;;
68910;SDS011;55953;51.650;-0.522;2022-10-16T05:34:08;14.10;;;2.10;;
68910;SDS011;55953;51.650;-0.522;2022-10-16T05:36:36;12.50;;;2.20;;
68910;SDS011;55953;51.650;-0.522;2022-10-16T05:39:04;13.60;;;1.90;;
68910;SDS011;55953;51.650;-0.522;2022-10-16T05:41:32;9.20;;;1.30;;
68910;SDS011;55953;51.650;-0.522;2022-10-16T05:44:04;10.30;;;1.20;;
68910;SDS011;55953;51.650;-0.522;2022-10-16T05:46:33;10.50;;;1.40;;
68910;SDS011;55953;51.650;-0.522;2022-10-16T05:49:01;9.80;;;1.40;;
68910;SDS011;55953;51.650;-0.522;2022-10-16T05:51:29;6.60;;;1.50;;
68910;SDS011;55953;51.650;-0.522;2022-10-16T05:53:57;11.90;;;1.40;;
68910;SDS011;55953;51.650;-0.522;2022-10-16T05:56:25;15.70;;;2.10;;
68910;SDS011;55953;51.650;-0.522;2022-10-16T05:58:53;15.70;;;2.10;;
68910;SDS011;55953;51.650;-0.522;2022-10-16T06:01:21;7.80;;;1.70;;
68910;SDS011;55953;51.650;-0.522;2022-10-16T06:03:52;14.80;;;1.40;;
68910;SDS011;55953;51.650;-0.522;2022-10-16T06:06:22;12.80;;;1.50;;
68910;SDS011;55953;51.650;-0.522;2022-10-16T06:08:54;10.30;;;1.50;;
68910;SDS011;55953;51.650;-0.522;2022-10-16T06:11:28;14.80;;;2.00;;
68910;SDS011;55953;51.650;-0.522;2022-10-16T06:13:59;10.50;;;1.50;;
68910;SDS011;55953;51.650;-0.522;2022-10-16T06:16:30;15.40;;;1.90;;
68910;SDS011;55953;51.650;-0.522;2022-10-16T06:18:58;15.30;;;2.00;;
68910;SDS011;55953;51.650;-0.522;2022-10-16T06:21:28;13.10;;;1.70;;
68910;SDS011;55953;51.650;-0.522;2022-10-16T06:23:57;7.70;;;1.10;;
68910;SDS011;55953;51.650;-0.522;2022-10-16T06:26:28;17.30;;;1.80;;
68910;SDS011;55953;51.650;-0.522;2022-10-16T06:28:58;9.00;;;2.60;;
68910;SDS011;55953;51.650;-0.522;2022-10-16T06:31:28;17.50;;;2.10;;
68910;SDS011;55953;51.650;-0.522;2022-10-16T06:33:59;15.00;;;1.50;;
68910;SDS011;55953;51.650;-0.522;2022-10-16T06:36:27;11.40;;;1.40;;
68910;SDS011;55953;51.650;-0.522;2022-10-16T06:38:56;11.70;;;1.50;;
68910;SDS011;55953;51.650;-0.522;2022-10-16T06:41:24;9.90;;;1.30;;
68910;SDS011;55953;51.650;-0.522;2022-10-16T06:43:52;10.90;;;1.20;;
68910;SDS011;55953;51.650;-0.522;2022-10-16T06:46:22;10.40;;;1.70;;
68910;SDS011;55953;51.650;-0.522;2022-10-16T06:48:54;8.10;;;1.40;;
68910;SDS011;55953;51.650;-0.522;2022-10-16T06:51:23;11.40;;;1.30;;
68910;SDS011;55953;51.650;-0.522;2022-10-16T06:53:54;12.10;;;2.20;;
68910;SDS011;55953;51.650;-0.522;2022-10-16T06:56:32;13.40;;;2.20;;
68910;SDS011;55953;51.650;-0.522;2022-10-16T06:59:01;13.30;;;1.70;;
68910;SDS011;55953;51.650;-0.522;2022-10-16T07:01:31;6.80;;;1.20;;
68910;SDS011;55953;51.650;-0.522;2022-10-16T07:04:00;11.50;;;1.00;;
68910;SDS011;55953;51.650;-0.522;2022-10-16T07:06:32;12.00;;;1.40;;
68910;SDS011;55953;51.650;-0.522;2022-10-16T07:09:04;11.40;;;1.80;;
68910;SDS011;55953;51.650;-0.522;2022-10-16T07:11:33;14.80;;;1.70;;
68910;SDS011;55953;51.650;-0.522;2022-10-16T07:14:02;13.60;;;2.10;;
68910;SDS011;55953;51.650;-0.522;2022-10-16T07:16:32;10.00;;;1.80;;
68910;SDS011;55953;51.650;-0.522;2022-10-16T07:19:01;9.40;;;1.30;;
68910;SDS011;55953;51.650;-0.522;2022-10-16T07:21:33;14.20;;;1.70;;
68910;SDS011;55953;51.650;-0.522;2022-10-16T07:24:07;8.60;;;1.50;;
68910;SDS011;55953;51.650;-0.522;2022-10-16T07:26:39;10.30;;;1.50;;
68910;SDS011;55953;51.650;-0.522;2022-10-16T07:29:34;9.80;;;2.10;;
68910;SDS011;55953;51.650;-0.522;2022-10-16T07:32:02;11.20;;;1.60;;
68910;SDS011;55953;51.650;-0.522;2022-10-16T07:34:29;10.00;;;1.40;;
68910;SDS011;55953;51.650;-0.522;2022-10-16T07:36:58;7.80;;;1.40;;
68910;SDS011;55953;51.650;-0.522;2022-10-16T07:39:25;13.10;;;2.30;;
68910;SDS011;55953;51.650;-0.522;2022-10-16T07:41:53;9.40;;;2.00;;
68910;SDS011;55953;51.650;-0.522;2022-10-16T07:44:21;11.50;;;1.40;;
68910;SDS011;55953;51.650;-0.522;2022-10-16T07:46:49;11.50;;;1.50;;
68910;SDS011;55953;51.650;-0.522;2022-10-16T07:49:17;18.00;;;2.00;;
68910;SDS011;55953;51.650;-0.522;2022-10-16T07:51:45;14.30;;;2.20;;
68910;SDS011;55953;51.650;-0.522;2022-10-16T07:54:13;17.70;;;2.10;;
68910;SDS011;55953;51.650;-0.522;2022-10-16T07:56:41;12.10;;;1.80;;
68910;SDS011;55953;51.650;-0.522;2022-10-16T07:59:11;16.20;;;1.60;;
68910;SDS011;55953;51.650;-0.522;2022-10-16T08:01:39;12.30;;;1.50;;
68910;SDS011;55953;51.650;-0.522;2022-10-16T08:04:08;17.10;;;2.40;;
68910;SDS011;55953;51.650;-0.522;2022-10-16T08:06:38;11.40;;;2.20;;
68910;SDS011;55953;51.650;-0.522;2022-10-16T08:09:07;10.00;;;2.50;;
68910;SDS011;55953;51.650;-0.522;2022-10-16T08:11:36;7.40;;;1.50;;
68910;SDS011;55953;51.650;-0.522;2022-10-16T08:14:03;11.80;;;1.50;;
68910;SDS011;55953;51.650;-0.522;2022-10-16T08:16:31;14.30;;;1.80;;
68910;SDS011;55953;51.650;-0.522;2022-10-16T08:18:59;11.30;;;1.50;;
68910;SDS011;55953;51.650;-0.522;2022-10-16T08:21:27;14.70;;;2.10;;
68910;SDS011;55953;51.650;-0.522;2022-10-16T08:23:55;14.30;;;2.30;;
68910;SDS011;55953;51.650;-0.522;2022-10-16T08:26:26;11.90;;;1.50;;
68910;SDS011;55953;51.650;-0.522;2022-10-16T08:28:55;13.10;;;2.00;;
68910;SDS011;55953;51.650;-0.522;2022-10-16T08:31:24;19.70;;;2.80;;
68910;SDS011;55953;51.650;-0.522;2022-10-16T08:33:54;20.60;;;2.30;;
68910;SDS011;55953;51.650;-0.522;2022-10-16T08:36:22;14.60;;;1.80;;
68910;SDS011;55953;51.650;-0.522;2022-10-16T08:38:50;9.40;;;1.70;;
68910;SDS011;55953;51.650;-0.522;2022-10-16T08:47:23;13.30;;;1.60;;
68910;SDS011;55953;51.650;-0.522;2022-10-16T08:50:02;15.20;;;1.60;;
68910;SDS011;55953;51.650;-0.522;2022-10-16T08:52:40;14.80;;;2.00;;
68910;SDS011;55953;51.650;-0.522;2022-10-16T08:55:46;13.80;;;1.90;;
68910;SDS011;55953;51.650;-0.522;2022-10-16T08:58:23;11.30;;;1.50;;
68910;SDS011;55953;51.650;-0.522;2022-10-16T09:01:03;15.90;;;1.70;;
68910;SDS011;55953;51.650;-0.522;2022-10-16T09:04:04;13.20;;;1.40;;
68910;SDS011;55953;51.650;-0.522;2022-10-16T09:07:02;12.80;;;1.80;;
68910;SDS011;55953;51.650;-0.522;2022-10-16T09:10:15;13.10;;;1.90;;
68910;SDS011;55953;51.650;-0.522;2022-10-16T09:13:23;12.90;;;2.10;;
68910;SDS011;55953;51.650;-0.522;2022-10-16T09:19:14;8.60;;;1.60;;
68910;SDS011;55953;51.650;-0.522;2022-10-16T09:21:46;12.00;;;1.80;;
68910;SDS011;55953;51.650;-0.522;2022-10-16T09:24:16;16.20;;;2.10;;
68910;SDS011;55953;51.650;-0.522;2022-10-16T09:26:47;16.70;;;1.70;;
68910;SDS011;55953;51.650;-0.522;2022-10-16T09:29:16;11.60;;;2.00;;
68910;SDS011;55953;51.650;-0.522;2022-10-16T09:31:52;14.30;;;1.90;;
68910;SDS011;55953;51.650;-0.522;2022-10-16T09:37:12;10.70;;;1.90;;
68910;SDS011;55953;51.650;-0.522;2022-10-16T09:39:54;13.90;;;2.50;;
68910;SDS011;55953;51.650;-0.522;2022-10-16T09:42:34;16.40;;;2.20;;
68910;SDS011;55953;51.650;-0.522;2022-10-16T09:45:04;13.70;;;1.70;;
68910;SDS011;55953;51.650;-0.522;2022-10-16T09:47:37;9.40;;;1.70;;
68910;SDS011;55953;51.650;-0.522;2022-10-16T09:50:25;14.50;;;1.60;;
68910;SDS011;55953;51.650;-0.522;2022-10-16T09:53:11;9.20;;;1.30;;
68910;SDS011;55953;51.650;-0.522;2022-10-16T09:55:48;10.90;;;1.40;;
68910;SDS011;55953;51.650;-0.522;2022-10-16T09:58:18;11.90;;;1.70;;
68910;SDS011;55953;51.650;-0.522;2022-10-16T10:00:51;16.00;;;2.20;;
68910;SDS011;55953;51.650;-0.522;2022-10-16T10:03:41;13.20;;;1.70;;
68910;SDS011;55953;51.650;-0.522;2022-10-16T10:06:25;13.00;;;1.80;;
68910;SDS011;55953;51.650;-0.522;2022-10-16T10:09:00;9.30;;;1.30;;
68910;SDS011;55953;51.650;-0.522;2022-10-16T10:11:56;11.60;;;1.60;;
68910;SDS011;55953;51.650;-0.522;2022-10-16T10:25:00;12.90;;;1.50;;
68910;SDS011;55953;51.650;-0.522;2022-10-16T10:27:40;13.90;;;1.60;;
68910;SDS011;55953;51.650;-0.522;2022-10-16T10:36:41;10.20;;;1.70;;
68910;SDS011;55953;51.650;-0.522;2022-10-16T10:39:15;12.80;;;1.90;;
68910;SDS011;55953;51.650;-0.522;2022-10-16T10:42:17;10.00;;;1.30;;
68910;SDS011;55953;51.650;-0.522;2022-10-16T10:48:48;12.60;;;2.00;;
68910;SDS011;55953;51.650;-0.522;2022-10-16T10:57:24;11.00;;;2.40;;
68910;SDS011;55953;51.650;-0.522;2022-10-16T11:00:14;6.50;;;1.10;;
68910;SDS011;55953;51.650;-0.522;2022-10-16T11:03:05;8.00;;;1.60;;
68910;SDS011;55953;51.650;-0.522;2022-10-16T11:11:46;11.80;;;1.70;;
68910;SDS011;55953;51.650;-0.522;2022-10-16T11:14:30;9.90;;;1.50;;
68910;SDS011;55953;51.650;-0.522;2022-10-16T11:17:13;12.10;;;1.70;;
68910;SDS011;55953;51.650;-0.522;2022-10-16T11:19:50;12.40;;;2.20;;
68910;SDS011;55953;51.650;-0.522;2022-10-16T11:22:37;6.80;;;1.20;;
68910;SDS011;55953;51.650;-0.522;2022-10-16T11:28:03;12.30;;;1.40;;
68910;SDS011;55953;51.650;-0.522;2022-10-16T11:36:12;14.30;;;1.90;;
68910;SDS011;55953;51.650;-0.522;2022-10-16T11:39:10;10.60;;;1.70;;
68910;SDS011;55953;51.650;-0.522;2022-10-16T11:44:59;13.70;;;2.10;;
68910;SDS011;55953;51.650;-0.522;2022-10-16T11:48:20;9.60;;;1.80;;
68910;SDS011;55953;51.650;-0.522;2022-10-16T11:51:05;11.00;;;2.20;;
68910;SDS011;55953;51.650;-0.522;2022-10-16T11:56:47;9.00;;;1.60;;
68910;SDS011;55953;51.650;-0.522;2022-10-16T12:02:26;13.40;;;2.00;;
68910;SDS011;55953;51.650;-0.522;2022-10-16T12:05:18;12.60;;;2.00;;
68910;SDS011;55953;51.650;-0.522;2022-10-16T12:10:27;10.70;;;2.60;;
68910;SDS011;55953;51.650;-0.522;2022-10-16T12:12:59;10.00;;;2.60;;
68910;SDS011;55953;51.650;-0.522;2022-10-16T12:15:29;12.20;;;2.60;;
68910;SDS011;55953;51.650;-0.522;2022-10-16T12:18:24;8.40;;;2.20;;
68910;SDS011;55953;51.650;-0.522;2022-10-16T12:20:59;11.00;;;2.40;;
68910;SDS011;55953;51.650;-0.522;2022-10-16T12:23:37;10.10;;;2.10;;
68910;SDS011;55953;51.650;-0.522;2022-10-16T12:26:28;14.10;;;2.20;;
68910;SDS011;55953;51.650;-0.522;2022-10-16T12:29:23;13.80;;;1.60;;
68910;SDS011;55953;51.650;-0.522;2022-10-16T12:31:57;13.00;;;2.20;;
68910;SDS011;55953;51.650;-0.522;2022-10-16T12:34:39;11.20;;;2.00;;
68910;SDS011;55953;51.650;-0.522;2022-10-16T12:37:23;11.10;;;2.40;;
68910;SDS011;55953;51.650;-0.522;2022-10-16T12:39:54;12.30;;;2.10;;
68910;SDS011;55953;51.650;-0.522;2022-10-16T12:44:56;13.80;;;2.00;;
68910;SDS011;55953;51.650;-0.522;2022-10-16T12:49:58;10.80;;;1.60;;
68910;SDS011;55953;51.650;-0.522;2022-10-16T12:53:01;9.10;;;1.90;;
68910;SDS011;55953;51.650;-0.522;2022-10-16T12:55:22;13.70;;;2.10;;
68910;SDS011;55953;51.650;-0.522;2022-10-16T13:00:45;18.30;;;4.10;;
68910;SDS011;55953;51.650;-0.522;2022-10-16T13:06:41;14.60;;;2.70;;
68910;SDS011;55953;51.650;-0.522;2022-10-16T13:09:43;13.10;;;2.30;;
68910;SDS011;55953;51.650;-0.522;2022-10-16T13:18:27;11.30;;;2.20;;
68910;SDS011;55953;51.650;-0.522;2022-10-16T13:21:30;14.50;;;2.30;;
68910;SDS011;55953;51.650;-0.522;2022-10-16T13:27:56;10.20;;;2.00;;
68910;SDS011;55953;51.650;-0.522;2022-10-16T13:30:30;9.80;;;2.20;;
68910;SDS011;55953;51.650;-0.522;2022-10-16T13:33:10;13.30;;;2.00;;
68910;SDS011;55953;51.650;-0.522;2022-10-16T13:35:54;14.20;;;2.00;;
68910;SDS011;55953;51.650;-0.522;2022-10-16T13:38:26;13.50;;;2.30;;
68910;SDS011;55953;51.650;-0.522;2022-10-16T13:40:59;15.20;;;2.20;;
68910;SDS011;55953;51.650;-0.522;2022-10-16T13:43:35;13.70;;;2.30;;
68910;SDS011;55953;51.650;-0.522;2022-10-16T13:46:13;10.00;;;1.60;;
68910;SDS011;55953;51.650;-0.522;2022-10-16T13:48:57;10.60;;;1.80;;
68910;SDS011;55953;51.650;-0.522;2022-10-16T13:51:56;15.70;;;1.90;;
68910;SDS011;55953;51.650;-0.522;2022-10-16T13:54:26;13.70;;;1.80;;
68910;SDS011;55953;51.650;-0.522;2022-10-16T13:56:56;11.90;;;1.90;;
68910;SDS011;55953;51.650;-0.522;2022-10-16T13:59:53;12.20;;;1.90;;
68910;SDS011;55953;51.650;-0.522;2022-10-16T14:02:32;14.00;;;1.90;;
68910;SDS011;55953;51.650;-0.522;2022-10-16T14:05:04;13.70;;;1.80;;
68910;SDS011;55953;51.650;-0.522;2022-10-16T14:07:37;16.00;;;3.30;;
68910;SDS011;55953;51.650;-0.522;2022-10-16T14:10:18;20.10;;;5.00;;
68910;SDS011;55953;51.650;-0.522;2022-10-16T14:13:02;16.70;;;5.10;;
68910;SDS011;55953;51.650;-0.522;2022-10-16T14:15:35;14.30;;;2.10;;
68910;SDS011;55953;51.650;-0.522;2022-10-16T14:18:04;15.40;;;2.10;;
68910;SDS011;55953;51.650;-0.522;2022-10-16T14:20:33;17.00;;;3.50;;
68910;SDS011;55953;51.650;-0.522;2022-10-16T14:23:28;14.80;;;3.40;;
68910;SDS011;55953;51.650;-0.522;2022-10-16T14:28:41;14.60;;;2.70;;
68910;SDS011;55953;51.650;-0.522;2022-10-16T14:34:01;20.00;;;3.70;;
68910;SDS011;55953;51.650;-0.522;2022-10-16T14:36:29;21.90;;;2.70;;
68910;SDS011;55953;51.650;-0.522;2022-10-16T14:39:06;14.60;;;2.40;;
68910;SDS011;55953;51.650;-0.522;2022-10-16T14:41:47;17.80;;;2.60;;
68910;SDS011;55953;51.650;-0.522;2022-10-16T14:44:17;12.30;;;2.40;;
68910;SDS011;55953;51.650;-0.522;2022-10-16T14:46:48;17.30;;;2.60;;
68910;SDS011;55953;51.650;-0.522;2022-10-16T14:49:19;14.00;;;3.00;;
68910;SDS011;55953;51.650;-0.522;2022-10-16T14:51:48;17.00;;;2.50;;
68910;SDS011;55953;51.650;-0.522;2022-10-16T14:54:18;10.30;;;2.50;;
68910;SDS011;55953;51.650;-0.522;2022-10-16T14:56:54;11.30;;;1.90;;
68910;SDS011;55953;51.650;-0.522;2022-10-16T14:59:35;12.50;;;2.20;;
68910;SDS011;55953;51.650;-0.522;2022-10-16T15:02:29;10.10;;;1.80;;
68910;SDS011;55953;51.650;-0.522;2022-10-16T15:05:42;11.10;;;1.40;;
68910;SDS011;55953;51.650;-0.522;2022-10-16T15:08:01;10.90;;;2.10;;
68910;SDS011;55953;51.650;-0.522;2022-10-16T15:10:30;13.60;;;2.30;;
68910;SDS011;55953;51.650;-0.522;2022-10-16T15:13:00;13.40;;;2.30;;
68910;SDS011;55953;51.650;-0.522;2022-10-16T15:15:43;9.80;;;2.00;;
68910;SDS011;55953;51.650;-0.522;2022-10-16T15:18:12;15.50;;;1.70;;
68910;SDS011;55953;51.650;-0.522;2022-10-16T15:20:42;15.30;;;2.00;;
68910;SDS011;55953;51.650;-0.522;2022-10-16T15:23:15;11.10;;;1.60;;
68910;SDS011;55953;51.650;-0.522;2022-10-16T15:28:20;13.00;;;2.10;;
68910;SDS011;55953;51.650;-0.522;2022-10-16T15:30:51;11.80;;;1.80;;
68910;SDS011;55953;51.650;-0.522;2022-10-16T15:33:25;12.60;;;1.30;;
68910;SDS011;55953;51.650;-0.522;2022-10-16T15:35:56;12.80;;;2.40;;
68910;SDS011;55953;51.650;-0.522;2022-10-16T15:38:24;10.90;;;1.60;;
68910;SDS011;55953;51.650;-0.522;2022-10-16T15:40:54;11.50;;;1.70;;
68910;SDS011;55953;51.650;-0.522;2022-10-16T15:43:22;14.10;;;2.30;;
68910;SDS011;55953;51.650;-0.522;2022-10-16T15:46:08;14.00;;;2.80;;
68910;SDS011;55953;51.650;-0.522;2022-10-16T15:48:41;12.60;;;1.80;;
68910;SDS011;55953;51.650;-0.522;2022-10-16T15:51:10;17.90;;;2.20;;
68910;SDS011;55953;51.650;-0.522;2022-10-16T15:53:38;13.50;;;2.00;;
68910;SDS011;55953;51.650;-0.522;2022-10-16T15:56:09;16.50;;;2.90;;
68910;SDS011;55953;51.650;-0.522;2022-10-16T15:58:39;12.10;;;2.20;;
68910;SDS011;55953;51.650;-0.522;2022-10-16T16:01:07;11.60;;;2.30;;
68910;SDS011;55953;51.650;-0.522;2022-10-16T16:03:38;20.90;;;3.40;;
68910;SDS011;55953;51.650;-0.522;2022-10-16T16:06:11;18.50;;;2.40;;
68910;SDS011;55953;51.650;-0.522;2022-10-16T16:08:41;11.70;;;2.90;;
68910;SDS011;55953;51.650;-0.522;2022-10-16T16:11:11;16.60;;;3.50;;
68910;SDS011;55953;51.650;-0.522;2022-10-16T16:13:41;14.20;;;2.50;;
68910;SDS011;55953;51.650;-0.522;2022-10-16T16:16:12;13.40;;;2.10;;
68910;SDS011;55953;51.650;-0.522;2022-10-16T16:18:43;19.00;;;2.90;;
68910;SDS011;55953;51.650;-0.522;2022-10-16T16:21:12;15.20;;;2.60;;
68910;SDS011;55953;51.650;-0.522;2022-10-16T16:23:40;11.60;;;3.00;;
68910;SDS011;55953;51.650;-0.522;2022-10-16T16:26:22;20.90;;;3.90;;
68910;SDS011;55953;51.650;-0.522;2022-10-16T16:28:54;15.80;;;2.90;;
68910;SDS011;55953;51.650;-0.522;2022-10-16T16:31:25;16.00;;;2.30;;
68910;SDS011;55953;51.650;-0.522;2022-10-16T16:33:55;14.30;;;3.20;;
68910;SDS011;55953;51.650;-0.522;2022-10-16T16:36:24;17.70;;;2.90;;
68910;SDS011;55953;51.650;-0.522;2022-10-16T16:38:53;17.70;;;3.30;;
68910;SDS011;55953;51.650;-0.522;2022-10-16T16:41:24;15.40;;;3.30;;
68910;SDS011;55953;51.650;-0.522;2022-10-16T16:43:54;22.20;;;4.40;;
68910;SDS011;55953;51.650;-0.522;2022-10-16T16:46:22;19.60;;;5.60;;
68910;SDS011;55953;51.650;-0.522;2022-10-16T16:48:50;15.20;;;3.60;;
68910;SDS011;55953;51.650;-0.522;2022-10-16T16:51:21;19.10;;;3.50;;
68910;SDS011;55953;51.650;-0.522;2022-10-16T16:53:51;16.20;;;3.00;;